sensor_id;sensor_type;location;lat;lon;timestamp;P1;durP1;ratioP1;P2;durP2;ratioP2
49015;SDS011;34830;44.064;12.566;2022-12-29T00:01:56;76.00;;;36.08;;
49015;SDS011;34830;44.064;12.566;2022-12-29T00:04:22;75.20;;;35.00;;
49015;SDS011;34830;44.064;12.566;2022-12-29T00:06:48;71.82;;;34.97;;
49015;SDS011;34830;44.064;12.566;2022-12-29T00:09:15;73.03;;;37.90;;
49015;SDS011;34830;44.064;12.566;2022-12-29T00:11:42;75.32;;;34.70;;
49015;SDS011;34830;44.064;12.566;2022-12-29T00:14:08;68.57;;;33.72;;
49015;SDS011;34830;44.064;12.566;2022-12-29T00:16:53;66.38;;;32.58;;
49015;SDS011;34830;44.064;12.566;2022-12-29T00:19:20;61.88;;;30.80;;
49015;SDS011;34830;44.064;12.566;2022-12-29T00:22:04;70.35;;;33.67;;
49015;SDS011;34830;44.064;12.566;2022-12-29T00:24:49;69.43;;;32.25;;
49015;SDS011;34830;44.064;12.566;2022-12-29T00:27:27;76.43;;;34.38;;
49015;SDS011;34830;44.064;12.566;2022-12-29T00:30:18;67.90;;;33.67;;
49015;SDS011;34830;44.064;12.566;2022-12-29T00:33:08;70.43;;;34.08;;
49015;SDS011;34830;44.064;12.566;2022-12-29T00:36:01;68.75;;;33.20;;
49015;SDS011;34830;44.064;12.566;2022-12-29T00:38:32;79.45;;;33.05;;
49015;SDS011;34830;44.064;12.566;2022-12-29T00:41:19;70.45;;;33.67;;
49015;SDS011;34830;44.064;12.566;2022-12-29T00:44:04;70.60;;;31.75;;
49015;SDS011;34830;44.064;12.566;2022-12-29T00:46:31;72.32;;;33.35;;
49015;SDS011;34830;44.064;12.566;2022-12-29T00:49:01;72.90;;;34.45;;
49015;SDS011;34830;44.064;12.566;2022-12-29T00:51:46;72.05;;;32.75;;
49015;SDS011;34830;44.064;12.566;2022-12-29T00:54:12;60.67;;;30.35;;
49015;SDS011;34830;44.064;12.566;2022-12-29T00:56:38;65.13;;;33.28;;
49015;SDS011;34830;44.064;12.566;2022-12-29T00:59:05;74.45;;;36.08;;
49015;SDS011;34830;44.064;12.566;2022-12-29T01:01:33;70.75;;;31.83;;
49015;SDS011;34830;44.064;12.566;2022-12-29T01:03:59;75.05;;;34.15;;
49015;SDS011;34830;44.064;12.566;2022-12-29T01:06:25;67.82;;;32.70;;
49015;SDS011;34830;44.064;12.566;2022-12-29T01:08:52;69.82;;;32.13;;
49015;SDS011;34830;44.064;12.566;2022-12-29T01:11:39;66.43;;;30.63;;
49015;SDS011;34830;44.064;12.566;2022-12-29T01:14:06;67.13;;;32.78;;
49015;SDS011;34830;44.064;12.566;2022-12-29T01:16:32;67.90;;;32.25;;
49015;SDS011;34830;44.064;12.566;2022-12-29T01:18:59;64.78;;;30.48;;
49015;SDS011;34830;44.064;12.566;2022-12-29T01:21:26;63.47;;;31.58;;
49015;SDS011;34830;44.064;12.566;2022-12-29T01:23:52;62.63;;;29.83;;
49015;SDS011;34830;44.064;12.566;2022-12-29T01:26:18;67.45;;;30.83;;
49015;SDS011;34830;44.064;12.566;2022-12-29T01:28:44;65.93;;;30.75;;
49015;SDS011;34830;44.064;12.566;2022-12-29T01:31:11;65.40;;;31.30;;
49015;SDS011;34830;44.064;12.566;2022-12-29T01:33:39;60.70;;;30.58;;
49015;SDS011;34830;44.064;12.566;2022-12-29T01:36:09;67.85;;;31.10;;
49015;SDS011;34830;44.064;12.566;2022-12-29T01:38:37;65.40;;;32.00;;
49015;SDS011;34830;44.064;12.566;2022-12-29T01:41:04;62.13;;;31.20;;
49015;SDS011;34830;44.064;12.566;2022-12-29T01:43:46;66.15;;;30.08;;
49015;SDS011;34830;44.064;12.566;2022-12-29T01:46:31;61.50;;;29.40;;
49015;SDS011;34830;44.064;12.566;2022-12-29T01:51:52;61.53;;;30.00;;
49015;SDS011;34830;44.064;12.566;2022-12-29T01:54:22;62.30;;;31.83;;
49015;SDS011;34830;44.064;12.566;2022-12-29T01:56:51;69.70;;;30.70;;
49015;SDS011;34830;44.064;12.566;2022-12-29T01:59:19;67.85;;;30.52;;
49015;SDS011;34830;44.064;12.566;2022-12-29T02:01:48;66.22;;;31.77;;
49015;SDS011;34830;44.064;12.566;2022-12-29T02:04:15;69.22;;;33.42;;
49015;SDS011;34830;44.064;12.566;2022-12-29T02:06:43;70.45;;;33.40;;
49015;SDS011;34830;44.064;12.566;2022-12-29T02:09:14;70.75;;;32.58;;
49015;SDS011;34830;44.064;12.566;2022-12-29T02:11:40;62.33;;;30.05;;
49015;SDS011;34830;44.064;12.566;2022-12-29T02:14:10;65.57;;;32.42;;
49015;SDS011;34830;44.064;12.566;2022-12-29T02:22:26;73.55;;;32.70;;
49015;SDS011;34830;44.064;12.566;2022-12-29T02:27:48;71.20;;;32.95;;
49015;SDS011;34830;44.064;12.566;2022-12-29T02:30:27;66.35;;;32.28;;
49015;SDS011;34830;44.064;12.566;2022-12-29T02:38:42;80.32;;;35.92;;
49015;SDS011;34830;44.064;12.566;2022-12-29T02:41:22;68.57;;;32.50;;
49015;SDS011;34830;44.064;12.566;2022-12-29T02:44:00;73.15;;;33.63;;
49015;SDS011;34830;44.064;12.566;2022-12-29T02:49:22;75.30;;;35.15;;
49015;SDS011;34830;44.064;12.566;2022-12-29T02:52:03;73.45;;;33.80;;
49015;SDS011;34830;44.064;12.566;2022-12-29T02:54:32;67.80;;;33.38;;
49015;SDS011;34830;44.064;12.566;2022-12-29T02:59:53;73.40;;;36.00;;
49015;SDS011;34830;44.064;12.566;2022-12-29T03:08:39;80.40;;;36.60;;
49015;SDS011;34830;44.064;12.566;2022-12-29T03:16:04;81.03;;;36.95;;
49015;SDS011;34830;44.064;12.566;2022-12-29T03:18:45;80.88;;;38.90;;
49015;SDS011;34830;44.064;12.566;2022-12-29T03:21:15;81.10;;;38.15;;
49015;SDS011;34830;44.064;12.566;2022-12-29T03:23:45;79.57;;;38.20;;
49015;SDS011;34830;44.064;12.566;2022-12-29T03:26:16;80.68;;;38.40;;
49015;SDS011;34830;44.064;12.566;2022-12-29T03:28:49;87.18;;;39.30;;
49015;SDS011;34830;44.064;12.566;2022-12-29T03:31:20;82.68;;;38.67;;
49015;SDS011;34830;44.064;12.566;2022-12-29T03:33:48;82.85;;;38.22;;
49015;SDS011;34830;44.064;12.566;2022-12-29T03:36:17;81.72;;;38.60;;
49015;SDS011;34830;44.064;12.566;2022-12-29T03:38:55;81.47;;;39.78;;
49015;SDS011;34830;44.064;12.566;2022-12-29T03:41:26;83.50;;;39.05;;
49015;SDS011;34830;44.064;12.566;2022-12-29T03:46:23;82.90;;;37.35;;
49015;SDS011;34830;44.064;12.566;2022-12-29T03:48:49;81.60;;;37.33;;
49015;SDS011;34830;44.064;12.566;2022-12-29T03:51:15;83.70;;;38.97;;
49015;SDS011;34830;44.064;12.566;2022-12-29T03:53:41;77.82;;;39.22;;
49015;SDS011;34830;44.064;12.566;2022-12-29T03:56:08;85.25;;;40.65;;
49015;SDS011;34830;44.064;12.566;2022-12-29T03:58:34;81.15;;;40.70;;
49015;SDS011;34830;44.064;12.566;2022-12-29T04:01:06;80.75;;;39.15;;
49015;SDS011;34830;44.064;12.566;2022-12-29T04:03:35;86.70;;;38.17;;
49015;SDS011;34830;44.064;12.566;2022-12-29T04:06:01;79.90;;;38.95;;
49015;SDS011;34830;44.064;12.566;2022-12-29T04:08:33;80.38;;;37.22;;
49015;SDS011;34830;44.064;12.566;2022-12-29T04:10:59;89.72;;;39.63;;
49015;SDS011;34830;44.064;12.566;2022-12-29T04:13:26;85.53;;;39.30;;
49015;SDS011;34830;44.064;12.566;2022-12-29T04:15:53;87.55;;;41.28;;
49015;SDS011;34830;44.064;12.566;2022-12-29T04:18:19;81.68;;;39.05;;
49015;SDS011;34830;44.064;12.566;2022-12-29T04:20:46;89.93;;;40.08;;
49015;SDS011;34830;44.064;12.566;2022-12-29T04:23:30;78.30;;;37.08;;
49015;SDS011;34830;44.064;12.566;2022-12-29T04:25:58;79.47;;;38.45;;
49015;SDS011;34830;44.064;12.566;2022-12-29T04:28:25;77.10;;;37.47;;
49015;SDS011;34830;44.064;12.566;2022-12-29T04:30:55;88.80;;;41.28;;
49015;SDS011;34830;44.064;12.566;2022-12-29T04:33:41;85.97;;;40.47;;
49015;SDS011;34830;44.064;12.566;2022-12-29T04:36:08;87.50;;;41.55;;
49015;SDS011;34830;44.064;12.566;2022-12-29T04:38:36;100.07;;;43.47;;
49015;SDS011;34830;44.064;12.566;2022-12-29T04:41:04;71.15;;;37.35;;
49015;SDS011;34830;44.064;12.566;2022-12-29T04:43:32;91.57;;;41.42;;
49015;SDS011;34830;44.064;12.566;2022-12-29T04:46:07;87.40;;;41.05;;
49015;SDS011;34830;44.064;12.566;2022-12-29T04:48:56;85.13;;;37.97;;
49015;SDS011;34830;44.064;12.566;2022-12-29T04:51:40;90.03;;;39.63;;
49015;SDS011;34830;44.064;12.566;2022-12-29T04:54:08;93.30;;;41.03;;
49015;SDS011;34830;44.064;12.566;2022-12-29T04:56:35;89.93;;;40.15;;
49015;SDS011;34830;44.064;12.566;2022-12-29T04:59:01;82.70;;;38.45;;
49015;SDS011;34830;44.064;12.566;2022-12-29T05:01:27;95.95;;;42.30;;
49015;SDS011;34830;44.064;12.566;2022-12-29T05:03:53;92.00;;;38.05;;
49015;SDS011;34830;44.064;12.566;2022-12-29T05:06:19;88.65;;;39.20;;
49015;SDS011;34830;44.064;12.566;2022-12-29T05:08:45;83.68;;;40.03;;
49015;SDS011;34830;44.064;12.566;2022-12-29T05:11:12;94.53;;;41.42;;
49015;SDS011;34830;44.064;12.566;2022-12-29T05:13:38;90.00;;;41.17;;
49015;SDS011;34830;44.064;12.566;2022-12-29T05:16:04;94.10;;;41.70;;
49015;SDS011;34830;44.064;12.566;2022-12-29T05:18:30;85.22;;;39.78;;
49015;SDS011;34830;44.064;12.566;2022-12-29T05:20:58;94.28;;;41.53;;
49015;SDS011;34830;44.064;12.566;2022-12-29T05:23:24;88.75;;;40.55;;
49015;SDS011;34830;44.064;12.566;2022-12-29T05:26:03;85.10;;;38.80;;
49015;SDS011;34830;44.064;12.566;2022-12-29T05:28:47;89.35;;;38.83;;
49015;SDS011;34830;44.064;12.566;2022-12-29T05:31:17;85.32;;;40.00;;
49015;SDS011;34830;44.064;12.566;2022-12-29T05:33:43;96.97;;;40.97;;
49015;SDS011;34830;44.064;12.566;2022-12-29T05:36:11;87.05;;;39.60;;
49015;SDS011;34830;44.064;12.566;2022-12-29T05:38:42;99.43;;;41.75;;
49015;SDS011;34830;44.064;12.566;2022-12-29T05:41:08;90.82;;;39.45;;
49015;SDS011;34830;44.064;12.566;2022-12-29T05:43:53;95.35;;;41.33;;
49015;SDS011;34830;44.064;12.566;2022-12-29T05:46:30;92.68;;;41.90;;
49015;SDS011;34830;44.064;12.566;2022-12-29T05:49:28;86.47;;;39.67;;
49015;SDS011;34830;44.064;12.566;2022-12-29T05:52:17;88.72;;;39.58;;
49015;SDS011;34830;44.064;12.566;2022-12-29T05:54:43;92.88;;;39.55;;
49015;SDS011;34830;44.064;12.566;2022-12-29T05:57:12;103.03;;;41.78;;
49015;SDS011;34830;44.064;12.566;2022-12-29T05:59:40;83.38;;;40.50;;
49015;SDS011;34830;44.064;12.566;2022-12-29T06:02:06;93.15;;;40.85;;
49015;SDS011;34830;44.064;12.566;2022-12-29T06:04:32;85.95;;;37.45;;
49015;SDS011;34830;44.064;12.566;2022-12-29T06:06:58;97.10;;;41.13;;
49015;SDS011;34830;44.064;12.566;2022-12-29T06:09:38;83.10;;;38.63;;
49015;SDS011;34830;44.064;12.566;2022-12-29T06:12:04;88.10;;;38.65;;
49015;SDS011;34830;44.064;12.566;2022-12-29T06:14:32;83.05;;;37.95;;
49015;SDS011;34830;44.064;12.566;2022-12-29T06:16:59;83.45;;;37.95;;
49015;SDS011;34830;44.064;12.566;2022-12-29T06:19:25;76.25;;;35.70;;
49015;SDS011;34830;44.064;12.566;2022-12-29T06:21:51;81.25;;;36.05;;
49015;SDS011;34830;44.064;12.566;2022-12-29T06:24:19;85.13;;;38.65;;
49015;SDS011;34830;44.064;12.566;2022-12-29T06:26:45;74.15;;;35.58;;
49015;SDS011;34830;44.064;12.566;2022-12-29T06:29:11;82.07;;;35.38;;
49015;SDS011;34830;44.064;12.566;2022-12-29T06:31:39;80.38;;;36.72;;
49015;SDS011;34830;44.064;12.566;2022-12-29T06:34:05;87.90;;;38.17;;
49015;SDS011;34830;44.064;12.566;2022-12-29T06:36:31;84.50;;;35.88;;
49015;SDS011;34830;44.064;12.566;2022-12-29T06:38:57;94.28;;;39.10;;
49015;SDS011;34830;44.064;12.566;2022-12-29T06:41:23;83.88;;;36.78;;
49015;SDS011;34830;44.064;12.566;2022-12-29T06:44:07;83.47;;;38.92;;
49015;SDS011;34830;44.064;12.566;2022-12-29T06:46:49;79.68;;;37.53;;
49015;SDS011;34830;44.064;12.566;2022-12-29T06:49:15;76.93;;;36.75;;
49015;SDS011;34830;44.064;12.566;2022-12-29T06:51:41;75.53;;;35.33;;
49015;SDS011;34830;44.064;12.566;2022-12-29T06:54:07;82.28;;;36.33;;
49015;SDS011;34830;44.064;12.566;2022-12-29T06:56:33;82.60;;;35.20;;
49015;SDS011;34830;44.064;12.566;2022-12-29T06:58:59;86.72;;;36.58;;
49015;SDS011;34830;44.064;12.566;2022-12-29T07:01:26;79.45;;;37.33;;
49015;SDS011;34830;44.064;12.566;2022-12-29T07:03:52;89.95;;;36.90;;
49015;SDS011;34830;44.064;12.566;2022-12-29T07:06:19;96.18;;;37.08;;
49015;SDS011;34830;44.064;12.566;2022-12-29T07:08:45;88.70;;;38.58;;
49015;SDS011;34830;44.064;12.566;2022-12-29T07:11:11;176.80;;;45.58;;
49015;SDS011;34830;44.064;12.566;2022-12-29T07:13:37;91.15;;;38.10;;
49015;SDS011;34830;44.064;12.566;2022-12-29T07:16:06;96.38;;;39.80;;
49015;SDS011;34830;44.064;12.566;2022-12-29T07:18:34;115.03;;;39.97;;
49015;SDS011;34830;44.064;12.566;2022-12-29T07:21:00;88.20;;;39.28;;
49015;SDS011;34830;44.064;12.566;2022-12-29T07:23:27;81.70;;;35.90;;
49015;SDS011;34830;44.064;12.566;2022-12-29T07:26:03;85.07;;;36.38;;
49015;SDS011;34830;44.064;12.566;2022-12-29T07:28:31;81.38;;;37.15;;
49015;SDS011;34830;44.064;12.566;2022-12-29T07:30:58;96.13;;;37.20;;
49015;SDS011;34830;44.064;12.566;2022-12-29T07:33:24;90.95;;;39.03;;
49015;SDS011;34830;44.064;12.566;2022-12-29T07:35:50;87.63;;;38.35;;
49015;SDS011;34830;44.064;12.566;2022-12-29T07:38:16;91.63;;;40.75;;
49015;SDS011;34830;44.064;12.566;2022-12-29T07:40:43;93.15;;;39.15;;
49015;SDS011;34830;44.064;12.566;2022-12-29T07:43:09;95.47;;;39.40;;
49015;SDS011;34830;44.064;12.566;2022-12-29T07:45:41;100.13;;;39.75;;
49015;SDS011;34830;44.064;12.566;2022-12-29T07:48:07;98.88;;;42.20;;
49015;SDS011;34830;44.064;12.566;2022-12-29T07:50:34;93.05;;;40.78;;
49015;SDS011;34830;44.064;12.566;2022-12-29T07:53:00;88.10;;;38.30;;
49015;SDS011;34830;44.064;12.566;2022-12-29T07:55:27;92.82;;;39.25;;
49015;SDS011;34830;44.064;12.566;2022-12-29T07:57:53;85.50;;;38.72;;
49015;SDS011;34830;44.064;12.566;2022-12-29T08:00:20;87.10;;;40.55;;
49015;SDS011;34830;44.064;12.566;2022-12-29T08:02:46;85.43;;;39.22;;
49015;SDS011;34830;44.064;12.566;2022-12-29T08:05:12;88.57;;;38.28;;
49015;SDS011;34830;44.064;12.566;2022-12-29T08:07:39;92.00;;;40.67;;
49015;SDS011;34830;44.064;12.566;2022-12-29T08:10:05;85.63;;;37.35;;
49015;SDS011;34830;44.064;12.566;2022-12-29T08:12:32;90.35;;;38.70;;
49015;SDS011;34830;44.064;12.566;2022-12-29T08:14:58;86.95;;;37.90;;
49015;SDS011;34830;44.064;12.566;2022-12-29T08:17:24;74.68;;;35.25;;
49015;SDS011;34830;44.064;12.566;2022-12-29T08:19:50;87.22;;;37.90;;
49015;SDS011;34830;44.064;12.566;2022-12-29T08:22:16;83.22;;;38.75;;
49015;SDS011;34830;44.064;12.566;2022-12-29T08:24:42;82.18;;;36.97;;
49015;SDS011;34830;44.064;12.566;2022-12-29T08:27:08;87.13;;;39.17;;
49015;SDS011;34830;44.064;12.566;2022-12-29T08:29:34;75.38;;;37.30;;
49015;SDS011;34830;44.064;12.566;2022-12-29T08:32:00;78.88;;;35.95;;
49015;SDS011;34830;44.064;12.566;2022-12-29T08:34:26;72.07;;;35.55;;
49015;SDS011;34830;44.064;12.566;2022-12-29T08:36:52;91.70;;;36.03;;
49015;SDS011;34830;44.064;12.566;2022-12-29T08:39:18;73.93;;;36.50;;
49015;SDS011;34830;44.064;12.566;2022-12-29T08:41:44;77.70;;;35.50;;
49015;SDS011;34830;44.064;12.566;2022-12-29T08:44:10;72.95;;;35.95;;
49015;SDS011;34830;44.064;12.566;2022-12-29T08:46:36;72.88;;;33.67;;
49015;SDS011;34830;44.064;12.566;2022-12-29T08:49:02;70.70;;;35.67;;
49015;SDS011;34830;44.064;12.566;2022-12-29T08:51:28;81.32;;;36.58;;
49015;SDS011;34830;44.064;12.566;2022-12-29T08:53:55;74.32;;;34.03;;
49015;SDS011;34830;44.064;12.566;2022-12-29T08:56:21;71.88;;;36.30;;
49015;SDS011;34830;44.064;12.566;2022-12-29T08:58:51;66.97;;;33.75;;
49015;SDS011;34830;44.064;12.566;2022-12-29T09:01:19;64.00;;;34.85;;
49015;SDS011;34830;44.064;12.566;2022-12-29T09:03:46;75.38;;;36.53;;
49015;SDS011;34830;44.064;12.566;2022-12-29T09:06:12;66.40;;;31.88;;
49015;SDS011;34830;44.064;12.566;2022-12-29T09:08:39;68.28;;;33.45;;
49015;SDS011;34830;44.064;12.566;2022-12-29T09:11:06;62.78;;;33.05;;
49015;SDS011;34830;44.064;12.566;2022-12-29T09:13:37;67.85;;;32.88;;
49015;SDS011;34830;44.064;12.566;2022-12-29T09:16:03;59.50;;;33.25;;
49015;SDS011;34830;44.064;12.566;2022-12-29T09:18:30;63.03;;;30.15;;
49015;SDS011;34830;44.064;12.566;2022-12-29T09:20:57;58.88;;;30.13;;
49015;SDS011;34830;44.064;12.566;2022-12-29T09:23:25;54.63;;;30.27;;
49015;SDS011;34830;44.064;12.566;2022-12-29T09:25:51;57.42;;;30.35;;
49015;SDS011;34830;44.064;12.566;2022-12-29T09:28:18;61.38;;;31.13;;
49015;SDS011;34830;44.064;12.566;2022-12-29T09:30:44;52.72;;;29.55;;
49015;SDS011;34830;44.064;12.566;2022-12-29T09:33:10;51.17;;;30.20;;
49015;SDS011;34830;44.064;12.566;2022-12-29T09:35:36;53.72;;;29.20;;
49015;SDS011;34830;44.064;12.566;2022-12-29T09:38:03;48.28;;;26.58;;
49015;SDS011;34830;44.064;12.566;2022-12-29T09:40:32;53.53;;;27.27;;
49015;SDS011;34830;44.064;12.566;2022-12-29T09:43:09;57.50;;;32.10;;
49015;SDS011;34830;44.064;12.566;2022-12-29T09:45:50;61.47;;;33.65;;
49015;SDS011;34830;44.064;12.566;2022-12-29T09:48:35;74.45;;;32.55;;
49015;SDS011;34830;44.064;12.566;2022-12-29T09:51:05;62.30;;;32.78;;
49015;SDS011;34830;44.064;12.566;2022-12-29T09:53:38;66.20;;;31.80;;
49015;SDS011;34830;44.064;12.566;2022-12-29T09:56:15;62.25;;;34.15;;
49015;SDS011;34830;44.064;12.566;2022-12-29T10:01:41;69.22;;;33.78;;
49015;SDS011;34830;44.064;12.566;2022-12-29T10:04:10;66.28;;;34.00;;
49015;SDS011;34830;44.064;12.566;2022-12-29T10:06:45;68.35;;;33.85;;
49015;SDS011;34830;44.064;12.566;2022-12-29T10:14:55;62.90;;;33.50;;
49015;SDS011;34830;44.064;12.566;2022-12-29T10:17:42;69.50;;;32.97;;
49015;SDS011;34830;44.064;12.566;2022-12-29T10:26:01;67.68;;;34.08;;
49015;SDS011;34830;44.064;12.566;2022-12-29T10:28:37;67.78;;;32.88;;
49015;SDS011;34830;44.064;12.566;2022-12-29T10:31:08;53.15;;;29.25;;
49015;SDS011;34830;44.064;12.566;2022-12-29T10:33:36;49.17;;;27.00;;
49015;SDS011;34830;44.064;12.566;2022-12-29T10:36:18;46.35;;;25.38;;
49015;SDS011;34830;44.064;12.566;2022-12-29T10:38:56;50.80;;;26.75;;
49015;SDS011;34830;44.064;12.566;2022-12-29T10:41:32;56.38;;;26.52;;
49015;SDS011;34830;44.064;12.566;2022-12-29T10:44:03;46.63;;;23.85;;
49015;SDS011;34830;44.064;12.566;2022-12-29T10:46:33;42.67;;;22.55;;
49015;SDS011;34830;44.064;12.566;2022-12-29T10:51:32;42.75;;;21.88;;
49015;SDS011;34830;44.064;12.566;2022-12-29T10:56:46;45.83;;;23.38;;
49015;SDS011;34830;44.064;12.566;2022-12-29T10:59:20;45.88;;;23.30;;
49015;SDS011;34830;44.064;12.566;2022-12-29T11:07:12;45.97;;;22.13;;
49015;SDS011;34830;44.064;12.566;2022-12-29T11:09:43;43.90;;;19.55;;
49015;SDS011;34830;44.064;12.566;2022-12-29T11:12:17;55.80;;;18.30;;
49015;SDS011;34830;44.064;12.566;2022-12-29T11:17:42;52.33;;;17.85;;
49015;SDS011;34830;44.064;12.566;2022-12-29T11:22:45;47.22;;;19.50;;
49015;SDS011;34830;44.064;12.566;2022-12-29T11:25:12;39.22;;;16.52;;
49015;SDS011;34830;44.064;12.566;2022-12-29T11:27:38;42.72;;;14.57;;
49015;SDS011;34830;44.064;12.566;2022-12-29T11:30:11;59.40;;;16.95;;
49015;SDS011;34830;44.064;12.566;2022-12-29T11:32:52;39.63;;;16.67;;
49015;SDS011;34830;44.064;12.566;2022-12-29T11:35:29;55.70;;;18.55;;
49015;SDS011;34830;44.064;12.566;2022-12-29T11:37:57;43.13;;;17.05;;
49015;SDS011;34830;44.064;12.566;2022-12-29T11:40:25;39.10;;;14.93;;
49015;SDS011;34830;44.064;12.566;2022-12-29T11:47:50;68.05;;;18.10;;
49015;SDS011;34830;44.064;12.566;2022-12-29T11:50:25;84.25;;;16.88;;
49015;SDS011;34830;44.064;12.566;2022-12-29T11:52:58;80.78;;;18.98;;
49015;SDS011;34830;44.064;12.566;2022-12-29T11:55:26;60.05;;;18.63;;
49015;SDS011;34830;44.064;12.566;2022-12-29T11:57:54;81.43;;;18.85;;
49015;SDS011;34830;44.064;12.566;2022-12-29T12:00:22;57.70;;;17.55;;
49015;SDS011;34830;44.064;12.566;2022-12-29T12:08:11;72.82;;;18.67;;
49015;SDS011;34830;44.064;12.566;2022-12-29T12:11:01;68.43;;;18.80;;
49015;SDS011;34830;44.064;12.566;2022-12-29T12:13:35;58.92;;;19.17;;
49015;SDS011;34830;44.064;12.566;2022-12-29T12:16:12;96.10;;;17.48;;
49015;SDS011;34830;44.064;12.566;2022-12-29T12:18:52;171.35;;;25.55;;
49015;SDS011;34830;44.064;12.566;2022-12-29T12:26:39;66.20;;;21.73;;
49015;SDS011;34830;44.064;12.566;2022-12-29T12:29:10;63.55;;;21.13;;
49015;SDS011;34830;44.064;12.566;2022-12-29T12:31:51;146.45;;;24.45;;
49015;SDS011;34830;44.064;12.566;2022-12-29T12:34:29;83.68;;;20.35;;
49015;SDS011;34830;44.064;12.566;2022-12-29T12:37:05;68.57;;;21.30;;
49015;SDS011;34830;44.064;12.566;2022-12-29T12:42:19;68.93;;;23.17;;
49015;SDS011;34830;44.064;12.566;2022-12-29T12:45:02;87.78;;;22.40;;
49015;SDS011;34830;44.064;12.566;2022-12-29T12:47:52;73.30;;;22.90;;
49015;SDS011;34830;44.064;12.566;2022-12-29T12:55:49;70.13;;;21.67;;
49015;SDS011;34830;44.064;12.566;2022-12-29T12:58:25;118.75;;;22.33;;
49015;SDS011;34830;44.064;12.566;2022-12-29T13:09:25;97.32;;;25.13;;
49015;SDS011;34830;44.064;12.566;2022-12-29T13:17:54;87.22;;;25.05;;
49015;SDS011;34830;44.064;12.566;2022-12-29T13:20:44;123.05;;;25.30;;
49015;SDS011;34830;44.064;12.566;2022-12-29T13:26:24;119.63;;;28.30;;
49015;SDS011;34830;44.064;12.566;2022-12-29T13:31:30;100.72;;;26.52;;
49015;SDS011;34830;44.064;12.566;2022-12-29T13:36:33;97.50;;;24.98;;
49015;SDS011;34830;44.064;12.566;2022-12-29T13:41:53;89.05;;;27.00;;
49015;SDS011;34830;44.064;12.566;2022-12-29T13:46:58;110.50;;;31.33;;
49015;SDS011;34830;44.064;12.566;2022-12-29T13:49:26;125.85;;;31.90;;
49015;SDS011;34830;44.064;12.566;2022-12-29T13:51:54;121.93;;;33.72;;
49015;SDS011;34830;44.064;12.566;2022-12-29T14:00:02;135.18;;;32.88;;
49015;SDS011;34830;44.064;12.566;2022-12-29T14:07:46;130.52;;;37.05;;
49015;SDS011;34830;44.064;12.566;2022-12-29T14:10:29;111.75;;;34.05;;
49015;SDS011;34830;44.064;12.566;2022-12-29T14:13:03;111.68;;;33.50;;
49015;SDS011;34830;44.064;12.566;2022-12-29T14:15:37;114.35;;;33.58;;
49015;SDS011;34830;44.064;12.566;2022-12-29T14:20:35;99.72;;;29.80;;
49015;SDS011;34830;44.064;12.566;2022-12-29T14:28:32;88.47;;;30.23;;
49015;SDS011;34830;44.064;12.566;2022-12-29T14:31:02;83.60;;;27.55;;
49015;SDS011;34830;44.064;12.566;2022-12-29T14:39:01;85.60;;;28.83;;
49015;SDS011;34830;44.064;12.566;2022-12-29T14:41:32;104.95;;;31.13;;
49015;SDS011;34830;44.064;12.566;2022-12-29T14:44:02;110.35;;;31.60;;
49015;SDS011;34830;44.064;12.566;2022-12-29T14:46:42;134.48;;;32.17;;
49015;SDS011;34830;44.064;12.566;2022-12-29T14:49:08;108.45;;;32.40;;
49015;SDS011;34830;44.064;12.566;2022-12-29T14:51:40;124.03;;;35.97;;
49015;SDS011;34830;44.064;12.566;2022-12-29T14:57:04;127.10;;;34.95;;
49015;SDS011;34830;44.064;12.566;2022-12-29T14:59:32;130.57;;;36.83;;
49015;SDS011;34830;44.064;12.566;2022-12-29T15:02:00;158.55;;;37.97;;
49015;SDS011;34830;44.064;12.566;2022-12-29T15:04:30;143.43;;;37.42;;
49015;SDS011;34830;44.064;12.566;2022-12-29T15:06:57;133.30;;;35.90;;
49015;SDS011;34830;44.064;12.566;2022-12-29T15:17:49;135.63;;;35.92;;
49015;SDS011;34830;44.064;12.566;2022-12-29T15:22:55;133.48;;;37.03;;
49015;SDS011;34830;44.064;12.566;2022-12-29T15:25:23;128.07;;;34.03;;
49015;SDS011;34830;44.064;12.566;2022-12-29T15:27:51;178.15;;;34.80;;
49015;SDS011;34830;44.064;12.566;2022-12-29T15:30:19;123.95;;;34.50;;
49015;SDS011;34830;44.064;12.566;2022-12-29T15:32:46;138.50;;;36.30;;
49015;SDS011;34830;44.064;12.566;2022-12-29T15:35:56;122.82;;;35.28;;
49015;SDS011;34830;44.064;12.566;2022-12-29T15:38:12;134.27;;;35.72;;
49015;SDS011;34830;44.064;12.566;2022-12-29T15:40:41;149.05;;;36.40;;
49015;SDS011;34830;44.064;12.566;2022-12-29T15:45:48;144.32;;;39.50;;
49015;SDS011;34830;44.064;12.566;2022-12-29T15:48:16;139.82;;;37.33;;
49015;SDS011;34830;44.064;12.566;2022-12-29T15:50:44;122.40;;;35.28;;
49015;SDS011;34830;44.064;12.566;2022-12-29T15:53:12;135.48;;;36.90;;
49015;SDS011;34830;44.064;12.566;2022-12-29T15:55:44;132.73;;;37.47;;
49015;SDS011;34830;44.064;12.566;2022-12-29T15:58:23;133.82;;;37.65;;
49015;SDS011;34830;44.064;12.566;2022-12-29T16:00:57;118.80;;;34.70;;
49015;SDS011;34830;44.064;12.566;2022-12-29T16:03:24;123.88;;;34.85;;
49015;SDS011;34830;44.064;12.566;2022-12-29T16:05:56;115.93;;;34.80;;
49015;SDS011;34830;44.064;12.566;2022-12-29T16:11:14;136.98;;;35.60;;
49015;SDS011;34830;44.064;12.566;2022-12-29T16:13:42;144.63;;;38.67;;
49015;SDS011;34830;44.064;12.566;2022-12-29T16:16:18;189.40;;;43.38;;
49015;SDS011;34830;44.064;12.566;2022-12-29T16:18:44;167.40;;;43.25;;
49015;SDS011;34830;44.064;12.566;2022-12-29T16:21:19;150.98;;;43.65;;
49015;SDS011;34830;44.064;12.566;2022-12-29T16:23:49;139.95;;;38.75;;
49015;SDS011;34830;44.064;12.566;2022-12-29T16:26:20;152.68;;;39.42;;
49015;SDS011;34830;44.064;12.566;2022-12-29T16:28:48;141.13;;;39.97;;
49015;SDS011;34830;44.064;12.566;2022-12-29T16:31:23;163.55;;;44.10;;
49015;SDS011;34830;44.064;12.566;2022-12-29T16:33:52;137.75;;;41.47;;
49015;SDS011;34830;44.064;12.566;2022-12-29T16:36:51;148.32;;;40.63;;
49015;SDS011;34830;44.064;12.566;2022-12-29T16:39:31;192.55;;;36.47;;
49015;SDS011;34830;44.064;12.566;2022-12-29T16:41:59;125.13;;;36.40;;
49015;SDS011;34830;44.064;12.566;2022-12-29T16:44:26;105.50;;;33.95;;
49015;SDS011;34830;44.064;12.566;2022-12-29T16:49:43;110.70;;;32.25;;
49015;SDS011;34830;44.064;12.566;2022-12-29T16:52:18;101.68;;;31.85;;
49015;SDS011;34830;44.064;12.566;2022-12-29T16:54:48;115.07;;;33.15;;
49015;SDS011;34830;44.064;12.566;2022-12-29T16:57:24;98.53;;;29.95;;
49015;SDS011;34830;44.064;12.566;2022-12-29T16:59:55;154.55;;;36.38;;
49015;SDS011;34830;44.064;12.566;2022-12-29T17:02:24;137.63;;;30.63;;
49015;SDS011;34830;44.064;12.566;2022-12-29T17:04:51;168.27;;;32.25;;
49015;SDS011;34830;44.064;12.566;2022-12-29T17:07:19;171.52;;;32.00;;
49015;SDS011;34830;44.064;12.566;2022-12-29T17:09:47;142.43;;;30.50;;
49015;SDS011;34830;44.064;12.566;2022-12-29T17:12:21;167.93;;;34.00;;